Time;durP1;ratioP1;P1;durP2;ratioP2;P2;SDS_P1;SDS_P2;PMS_P1;PMS_P2;Temp;Humidity;BMP_temperature;BMP_pressure;BME280_temperature;BME280_humidity;BME280_pressure;Samples;Min_cycle;Max_cycle;Signal;HPM_P1;HPM_P2
2023/05/23 00:00:12;;;;;;;28.37;18.40;;;17.20;99.90;;;17.96;100.00;98083.13;5040482;28;20515;-79
2023/05/23 00:02:43;;;;;;;30.40;19.03;;;17.30;99.90;;;17.96;100.00;98077.84;5040469;28;20464;-79
2023/05/23 00:05:14;;;;;;;31.33;19.50;;;17.20;99.90;;;17.93;100.00;98075.66;5040711;28;20754;-79
2023/05/23 00:07:44;;;;;;;33.93;18.97;;;17.10;99.90;;;17.90;100.00;98074.28;5042324;28;20453;-79
2023/05/23 00:10:14;;;;;;;32.07;19.07;;;17.20;99.90;;;17.85;100.00;98079.47;5040164;28;20494;-79
2023/05/23 00:12:46;;;;;;;32.40;19.70;;;17.10;99.90;;;17.84;100.00;98083.13;5040942;28;20457;-79
2023/05/23 00:15:15;;;;;;;32.80;20.27;;;17.10;99.90;;;17.83;100.00;98080.75;5040664;28;20512;-79
2023/05/23 00:17:45;;;;;;;29.33;19.83;;;17.10;99.90;;;17.80;100.00;98084.66;5041299;28;20491;-79
2023/05/23 00:20:14;;;;;;;33.47;18.40;;;17.00;99.90;;;17.80;100.00;98083.84;5041752;28;20488;-79
2023/05/23 00:22:47;;;;;;;29.73;18.20;;;17.00;99.90;;;17.77;100.00;98086.97;5040645;28;20992;-79
2023/05/23 00:25:16;;;;;;;34.30;18.87;;;17.00;99.90;;;17.74;100.00;98098.78;5044183;28;21209;-79
2023/05/23 00:27:45;;;;;;;32.23;20.53;;;17.00;99.90;;;17.70;100.00;98087.06;5041522;28;20491;-79
2023/05/23 00:30:14;;;;;;;31.97;18.83;;;16.90;99.90;;;17.66;100.00;98085.94;5039485;28;20539;-79
2023/05/23 00:32:43;;;;;;;31.97;18.77;;;16.90;99.90;;;17.62;100.00;98094.56;5040703;28;20864;-79
2023/05/23 00:35:13;;;;;;;28.70;18.20;;;16.90;99.90;;;17.58;100.00;98088.94;5040265;28;20464;-79
2023/05/23 00:37:42;;;;;;;29.70;17.60;;;16.80;99.90;;;17.54;100.00;98085.91;5040672;28;20469;-80
2023/05/23 00:40:13;;;;;;;29.40;19.70;;;16.80;99.90;;;17.53;100.00;98089.56;5042351;28;21018;-79
2023/05/23 00:42:41;;;;;;;31.00;17.87;;;16.80;99.90;;;17.52;100.00;98087.19;5042433;28;20683;-79
2023/05/23 00:45:12;;;;;;;32.73;18.93;;;16.80;99.90;;;17.45;100.00;98089.94;5039518;28;21017;-79
2023/05/23 00:47:41;;;;;;;48.87;20.97;;;16.70;99.90;;;17.45;100.00;98089.94;5039568;28;20958;-79
2023/05/23 00:50:14;;;;;;;26.13;18.07;;;16.70;99.90;;;17.44;100.00;98087.50;5039786;28;20625;-79
2023/05/23 00:52:45;;;;;;;35.90;18.20;;;16.70;99.90;;;17.41;100.00;98083.50;5041214;28;20459;-79
2023/05/23 00:55:15;;;;;;;32.60;19.57;;;16.60;99.90;;;17.39;100.00;98088.19;5040069;28;20468;-80
2023/05/23 00:57:44;;;;;;;33.57;20.40;;;16.60;99.90;;;17.38;100.00;98077.84;5039732;28;21035;-79
2023/05/23 01:00:14;;;;;;;27.27;18.87;;;16.60;99.90;;;17.35;100.00;98091.53;5043268;28;20521;-79
2023/05/23 01:02:50;;;;;;;37.47;19.87;;;16.60;99.90;;;17.29;100.00;98101.16;5041202;28;20902;-79
2023/05/23 01:05:21;;;;;;;31.40;18.73;;;16.60;99.90;;;17.24;100.00;98097.63;5042363;28;20681;-79
2023/05/23 01:07:51;;;;;;;31.13;18.13;;;16.50;99.90;;;17.21;100.00;98104.16;5039840;28;20472;-79
2023/05/23 01:10:28;;;;;;;35.87;19.73;;;16.50;99.90;;;17.22;100.00;98105.75;5041271;28;20919;-79
2023/05/23 01:13:13;;;;;;;32.80;19.67;;;16.50;99.90;;;17.20;100.00;98099.91;5043302;28;20464;-79
2023/05/23 01:15:56;;;;;;;30.87;19.73;;;16.40;99.90;;;17.20;100.00;98109.66;5040924;28;20464;-79
2023/05/23 01:18:36;;;;;;;34.93;18.93;;;16.50;99.90;;;17.18;100.00;98101.94;5040830;28;20516;-79
2023/05/23 01:21:11;;;;;;;38.63;20.10;;;16.50;99.90;;;17.15;100.00;98104.28;5042000;28;20556;-79
2023/05/23 01:24:27;;;;;;;29.47;19.23;;;16.40;99.90;;;17.13;100.00;98101.03;5041228;28;20464;-79
2023/05/23 01:27:17;;;;;;;35.33;19.63;;;16.50;99.90;;;17.06;100.00;98111.72;5037300;28;20462;-79
2023/05/23 01:29:53;;;;;;;28.90;19.23;;;16.40;99.90;;;17.06;100.00;98103.78;5039884;28;20508;-79
2023/05/23 01:32:25;;;;;;;33.20;18.00;;;16.30;99.90;;;17.03;100.00;98106.88;5042083;28;20512;-79
2023/05/23 01:34:54;;;;;;;34.47;20.40;;;16.30;99.90;;;17.05;100.00;98096.88;5040342;28;20630;-79
2023/05/23 01:37:24;;;;;;;28.67;17.87;;;16.30;99.90;;;17.01;100.00;98101.81;5040527;28;20491;-79
2023/05/23 01:39:52;;;;;;;30.30;18.77;;;16.30;99.90;;;16.98;100.00;98107.56;5039429;28;20484;-79
2023/05/23 01:42:22;;;;;;;30.20;19.83;;;16.20;99.90;;;16.98;100.00;98109.38;5039052;28;20465;-79
2023/05/23 01:44:52;;;;;;;28.77;17.60;;;16.20;99.90;;;16.94;100.00;98109.03;5038747;28;20465;-79
2023/05/23 01:47:22;;;;;;;29.83;18.23;;;16.20;99.90;;;16.93;100.00;98111.91;5038166;28;20530;-79
2023/05/23 01:49:54;;;;;;;35.80;17.83;;;16.20;99.90;;;16.90;100.00;98105.22;5039091;28;20469;-79
2023/05/23 01:52:24;;;;;;;29.30;18.70;;;16.20;99.90;;;16.88;100.00;98114.41;5039265;28;20492;-79
2023/05/23 01:54:54;;;;;;;27.57;18.23;;;16.10;99.90;;;16.83;100.00;98116.94;5038934;28;20873;-79
2023/05/23 01:57:24;;;;;;;27.23;17.13;;;16.10;99.90;;;16.81;100.00;98116.34;5037732;28;21037;-80
2023/05/23 01:59:55;;;;;;;29.67;18.10;;;16.00;99.90;;;16.78;100.00;98122.88;5038761;28;20465;-79
2023/05/23 02:02:26;;;;;;;27.80;18.03;;;16.00;99.90;;;16.77;100.00;98131.03;5040761;28;20474;-79
2023/05/23 02:04:56;;;;;;;34.03;18.13;;;16.00;99.90;;;16.70;100.00;98130.31;5042335;28;20484;-79
2023/05/23 02:07:25;;;;;;;27.60;18.10;;;16.00;99.90;;;16.68;100.00;98129.72;5042498;28;20518;-79
2023/05/23 02:09:55;;;;;;;33.80;17.90;;;15.90;99.90;;;16.61;100.00;98129.81;5037474;28;20491;-79
2023/05/23 02:12:24;;;;;;;25.53;16.87;;;15.90;99.90;;;16.62;100.00;98125.34;5042074;28;20501;-79
2023/05/23 02:14:54;;;;;;;23.10;16.10;;;15.90;99.90;;;16.61;100.00;98129.81;5040320;28;20468;-79
2023/05/23 02:17:23;;;;;;;26.43;16.80;;;15.90;99.90;;;16.58;100.00;98125.00;5040391;28;20567;-79
2023/05/23 02:19:51;;;;;;;29.47;17.83;;;15.90;99.90;;;16.58;100.00;98131.09;5038038;28;21010;-79
2023/05/23 02:22:24;;;;;;;28.50;15.63;;;15.90;99.90;;;16.57;100.00;98145.31;5039125;28;20987;-79
2023/05/23 02:24:53;;;;;;;27.07;15.13;;;15.90;99.90;;;16.58;100.00;98141.66;5038680;28;20696;-79
2023/05/23 02:27:21;;;;;;;23.10;16.50;;;15.80;99.90;;;16.57;100.00;98128.66;5038835;28;20473;-79
2023/05/23 02:29:50;;;;;;;28.43;16.60;;;15.80;99.90;;;16.54;100.00;98143.09;5039825;28;20465;-79
2023/05/23 02:32:21;;;;;;;31.10;16.13;;;15.80;99.90;;;16.49;100.00;98132.38;5039958;28;20501;-79
2023/05/23 02:34:49;;;;;;;27.03;17.10;;;15.80;99.90;;;16.47;100.00;98137.06;5039668;28;20501;-79
2023/05/23 02:37:18;;;;;;;26.07;14.30;;;15.70;99.90;;;16.48;100.00;98138.69;5039652;28;20831;-79
2023/05/23 02:39:48;;;;;;;25.77;15.43;;;15.70;99.90;;;16.46;100.00;98139.94;5038451;28;20689;-79
2023/05/23 02:42:17;;;;;;;22.63;14.47;;;15.70;99.90;;;16.46;100.00;98158.41;5038440;28;20492;-79
2023/05/23 02:44:46;;;;;;;23.10;14.90;;;15.70;99.90;;;16.44;100.00;98149.91;5043922;28;20470;-79
2023/05/23 02:47:15;;;;;;;18.53;14.17;;;15.70;99.90;;;16.41;100.00;98155.63;5043548;28;20469;-79
2023/05/23 02:49:46;;;;;;;25.00;14.70;;;15.70;99.90;;;16.39;100.00;98158.50;5043661;28;20467;-79
2023/05/23 02:52:15;;;;;;;18.60;14.17;;;15.60;99.90;;;16.37;100.00;98160.56;5044182;28;20496;-79
2023/05/23 02:54:44;;;;;;;21.60;13.60;;;15.70;99.90;;;16.34;100.00;98166.28;5043403;28;20476;-82
2023/05/23 02:57:13;;;;;;;21.10;13.57;;;15.60;99.90;;;16.30;100.00;98157.19;5043499;28;20492;-79
2023/05/23 02:59:42;;;;;;;19.97;13.00;;;15.50;99.90;;;16.31;100.00;98163.28;5043395;28;21058;-79
2023/05/23 03:02:11;;;;;;;30.47;13.63;;;15.60;99.90;;;16.29;100.00;98163.47;5041480;28;20469;-79
2023/05/23 03:04:40;;;;;;;21.47;13.40;;;15.50;99.90;;;16.28;100.00;98161.84;5041213;28;20467;-80
2023/05/23 03:07:12;;;;;;;23.53;13.40;;;15.50;99.90;;;16.26;100.00;98156.00;5044870;28;20473;-79
2023/05/23 03:09:55;;;;;;;22.03;11.13;;;15.50;99.90;;;16.27;100.00;98160.25;5042187;28;20481;-78
2023/05/23 03:12:25;;;;;;;23.73;12.93;;;15.50;99.90;;;16.24;100.00;98163.34;5043375;28;21502;-79
2023/05/23 03:14:54;;;;;;;17.37;11.80;;;15.50;99.90;;;16.20;100.00;98167.44;5042500;28;20539;-80
2023/05/23 03:17:26;;;;;;;20.00;13.70;;;15.50;99.90;;;16.16;100.00;98166.28;5045093;28;20467;-79
2023/05/23 03:19:55;;;;;;;20.50;10.97;;;15.40;99.90;;;16.13;100.00;98164.06;5044018;28;20527;-79
2023/05/23 03:22:25;;;;;;;23.27;14.43;;;15.40;99.90;;;16.12;100.00;98162.44;5040189;28;20461;-79
2023/05/23 03:24:55;;;;;;;15.70;10.30;;;15.40;99.90;;;16.11;100.00;98166.09;5039672;28;20534;-83
2023/05/23 03:27:23;;;;;;;16.03;10.33;;;15.40;99.90;;;16.07;100.00;98171.00;5041185;28;20622;-78
2023/05/23 03:29:52;;;;;;;18.17;11.73;;;15.40;99.90;;;16.05;100.00;98167.81;5042989;28;20487;-81
2023/05/23 03:32:22;;;;;;;19.97;12.93;;;15.40;99.90;;;16.04;100.00;98175.91;5037323;28;20498;-79
2023/05/23 03:34:53;;;;;;;13.07;10.17;;;15.30;99.90;;;16.03;100.00;98169.88;5036566;28;20465;-80
2023/05/23 03:37:22;;;;;;;21.30;11.47;;;15.30;99.90;;;16.05;100.00;98167.00;5038649;28;20501;-78
2023/05/23 03:39:52;;;;;;;15.93;10.60;;;15.30;99.90;;;16.03;100.00;98163.78;5042483;28;20465;-78
2023/05/23 03:42:21;;;;;;;23.43;11.20;;;15.40;99.90;;;15.98;100.00;98166.25;5042575;28;20461;-78
2023/05/23 03:44:49;;;;;;;15.90;10.10;;;15.30;99.90;;;15.96;100.00;98168.31;5042454;28;21157;-78
2023/05/23 03:47:18;;;;;;;22.63;12.53;;;15.30;99.90;;;15.94;100.00;98171.16;5040752;28;20531;-78
2023/05/23 03:49:47;;;;;;;15.33;9.73;;;15.30;99.90;;;15.93;100.00;98166.91;5043257;28;20469;-78
2023/05/23 03:52:16;;;;;;;15.47;11.10;;;15.20;99.90;;;15.93;100.00;98166.91;5039418;28;20538;-78
2023/05/23 03:54:45;;;;;;;23.07;12.10;;;15.30;99.90;;;15.91;100.00;98166.31;5041814;28;20469;-78
2023/05/23 03:57:15;;;;;;;16.40;11.00;;;15.20;99.90;;;15.93;100.00;98176.66;5037690;28;20484;-78
2023/05/23 03:59:45;;;;;;;19.43;10.10;;;15.20;99.90;;;15.92;100.00;98177.69;5037740;28;20893;-79
2023/05/23 04:02:14;;;;;;;16.70;10.40;;;15.30;99.90;;;15.91;100.00;98181.34;5036764;28;20495;-79
2023/05/23 04:04:42;;;;;;;19.00;11.20;;;15.20;99.90;;;15.95;100.00;98171.97;5036615;28;20479;-79
2023/05/23 04:07:13;;;;;;;16.13;10.53;;;15.30;99.90;;;15.96;100.00;98186.78;5032742;28;21003;-78
2023/05/23 04:09:42;;;;;;;65.23;39.53;;;15.30;99.90;;;15.97;100.00;98181.25;5035813;28;20453;-77
2023/05/23 04:12:10;;;;;;;27.37;12.83;;;15.30;99.90;;;15.96;100.00;98187.59;5033944;28;21030;-79
2023/05/23 04:14:42;;;;;;;23.37;10.03;;;15.30;99.90;;;15.97;100.00;98186.53;5034754;28;20461;-79
2023/05/23 04:17:10;;;;;;;15.87;10.17;;;15.20;99.90;;;15.99;100.00;98181.06;5037960;28;20670;-79
2023/05/23 04:19:40;;;;;;;15.30;10.17;;;15.20;99.90;;;16.07;100.00;98180.75;5034800;28;20465;-79
2023/05/23 04:22:09;;;;;;;15.73;10.17;;;15.30;99.90;;;16.12;100.00;98188.84;5033229;28;20469;-79
2023/05/23 04:24:38;;;;;;;13.10;9.03;;;15.40;99.90;;;16.17;100.00;98173.16;5036514;28;20550;-78
2023/05/23 04:27:09;;;;;;;18.53;9.70;;;15.40;99.90;;;16.21;100.00;98186.72;5015224;28;20503;-79
2023/05/23 04:29:39;;;;;;;22.80;14.03;;;15.50;99.90;;;16.23;100.00;98189.94;5036158;28;21032;-80
2023/05/23 04:32:10;;;;;;;13.13;8.20;;;15.60;99.90;;;16.21;100.00;98195.44;5017277;28;21644;-79
2023/05/23 04:34:40;;;;;;;14.20;8.43;;;15.60;99.90;;;16.22;100.00;98197.06;5017075;28;20472;-78
2023/05/23 04:37:09;;;;;;;13.03;7.60;;;15.60;99.90;;;16.24;100.00;98200.28;5036890;28;20460;-79
2023/05/23 04:39:40;;;;;;;12.90;8.20;;;15.60;99.90;;;16.23;100.00;98196.03;5019065;28;20464;-79
2023/05/23 04:42:11;;;;;;;13.33;8.00;;;15.60;99.90;;;16.25;100.00;98188.69;5017592;28;20473;-79
2023/05/23 04:44:43;;;;;;;13.90;7.93;;;15.50;99.90;;;16.29;100.00;98189.88;5038332;28;21128;-78
2023/05/23 04:47:11;;;;;;;19.23;12.07;;;15.60;99.90;;;16.34;100.00;98197.13;5036516;28;20974;-77
2023/05/23 04:49:46;;;;;;;12.47;8.13;;;15.70;99.90;;;16.36;100.00;98195.88;5034196;28;20467;-78
2023/05/23 04:52:17;;;;;;;13.00;9.10;;;15.60;99.90;;;16.37;100.00;98202.78;5038530;28;20633;-78
2023/05/23 04:54:47;;;;;;;15.10;8.87;;;15.60;99.90;;;16.41;100.00;98201.31;5042760;28;20465;-79
2023/05/23 04:57:16;;;;;;;14.37;8.37;;;15.70;99.90;;;16.43;100.00;98201.91;5040486;28;20484;-79
2023/05/23 04:59:47;;;;;;;11.20;7.53;;;15.70;99.90;;;16.44;100.00;98206.16;5024186;28;20469;-79
2023/05/23 05:02:16;;;;;;;17.30;9.03;;;15.70;99.90;;;16.44;100.00;98211.44;5034683;28;21084;-79
2023/05/23 05:04:46;;;;;;;11.47;8.20;;;15.70;99.90;;;16.47;100.00;98212.81;5036748;28;20476;-79
2023/05/23 05:07:15;;;;;;;11.47;7.57;;;15.70;99.90;;;16.49;100.00;98203.66;5034963;28;20836;-78
2023/05/23 05:09:44;;;;;;;14.77;7.70;;;15.90;99.90;;;16.48;100.00;98203.88;5037609;28;20873;-79
2023/05/23 05:12:12;;;;;;;10.23;7.00;;;15.90;99.90;;;16.52;100.00;98211.13;5036252;28;20499;-78
2023/05/23 05:14:41;;;;;;;15.23;7.80;;;15.90;99.90;;;16.54;100.00;98214.38;5037019;28;20851;-79
2023/05/23 05:17:11;;;;;;;12.80;7.80;;;15.90;99.90;;;16.51;100.00;98214.81;5040226;28;20711;-79
2023/05/23 05:19:40;;;;;;;12.53;8.03;;;15.90;99.90;;;16.49;100.00;98210.75;5039790;28;20614;-79
2023/05/23 05:22:08;;;;;;;13.00;7.47;;;15.80;99.90;;;16.53;100.00;98214.56;5042365;28;20456;-79
2023/05/23 05:24:39;;;;;;;13.40;7.43;;;15.90;99.90;;;16.48;100.00;98217.91;5039588;28;21260;-78
2023/05/23 05:27:08;;;;;;;9.57;6.87;;;15.80;99.90;;;16.49;100.00;98226.59;5041063;28;20941;-79
2023/05/23 05:29:36;;;;;;;14.90;7.83;;;15.80;99.90;;;16.52;100.00;98216.41;5044463;28;20469;-79
2023/05/23 05:32:07;;;;;;;14.77;10.63;;;15.80;99.90;;;16.55;100.00;98221.31;5034853;28;20480;-78
2023/05/23 05:34:37;;;;;;;17.93;9.97;;;15.90;99.90;;;16.53;100.00;98223.31;5031760;28;20481;-78
2023/05/23 05:37:06;;;;;;;15.70;9.70;;;15.90;99.90;;;16.55;100.00;98231.03;5032106;28;21017;-78
2023/05/23 05:39:35;;;;;;;10.40;7.53;;;15.90;99.90;;;16.53;100.00;98235.69;5034352;28;20480;-78
2023/05/23 05:42:04;;;;;;;14.33;8.70;;;15.90;99.90;;;16.54;100.00;98230.22;5031882;28;20475;-77
2023/05/23 05:44:33;;;;;;;10.33;7.00;;;15.90;99.90;;;16.58;100.00;98241.97;5034378;28;20546;-78
2023/05/23 05:47:02;;;;;;;9.40;7.00;;;16.00;99.90;;;16.54;100.00;98240.78;5035035;28;20465;-79
2023/05/23 05:49:30;;;;;;;11.17;8.33;;;15.90;99.90;;;16.56;100.00;98248.50;5037290;28;20465;-78
2023/05/23 05:52:01;;;;;;;13.33;8.53;;;15.90;99.90;;;16.53;100.00;98255.00;5035377;28;20479;-78
2023/05/23 05:54:29;;;;;;;15.43;7.60;;;15.80;99.90;;;16.59;100.00;98250.72;5037343;28;20491;-79
2023/05/23 05:56:58;;;;;;;12.13;7.47;;;15.90;99.90;;;16.56;100.00;98244.03;5037380;28;20497;-79
2023/05/23 05:59:26;;;;;;;11.57;8.00;;;16.00;99.90;;;16.53;100.00;98260.28;5033586;28;20465;-79
2023/05/23 06:01:57;;;;;;;12.10;7.57;;;15.90;99.90;;;16.52;100.00;98260.50;5035254;28;20531;-79
2023/05/23 06:04:25;;;;;;;10.53;6.60;;;15.90;99.90;;;16.50;100.00;98266.00;5036388;28;20476;-79
2023/05/23 06:06:55;;;;;;;10.60;7.07;;;15.90;99.90;;;16.48;100.00;98285.72;5035522;28;20463;-79
2023/05/23 06:09:25;;;;;;;11.33;7.83;;;15.90;99.90;;;16.40;100.00;98281.53;5033729;28;21029;-79
2023/05/23 06:11:54;;;;;;;12.70;7.27;;;15.80;99.90;;;16.44;100.00;98287.19;5033986;28;20468;-80
2023/05/23 06:14:22;;;;;;;9.60;6.80;;;15.80;99.90;;;16.40;100.00;98278.91;5036265;28;20497;-79
2023/05/23 06:16:51;;;;;;;10.90;7.40;;;15.70;99.90;;;16.46;100.00;98283.28;5037823;28;20907;-79
2023/05/23 06:19:20;;;;;;;9.80;6.70;;;15.80;99.90;;;16.50;100.00;98281.84;5034476;28;20487;-79
2023/05/23 06:21:48;;;;;;;11.40;6.80;;;15.90;99.90;;;16.54;100.00;98288.31;5034343;28;20750;-79
2023/05/23 06:24:17;;;;;;;11.93;7.33;;;15.90;99.90;;;16.53;100.00;98285.88;5034688;28;20510;-79
2023/05/23 06:26:48;;;;;;;6.20;5.13;;;16.00;99.90;;;16.53;100.00;98297.25;5035568;28;20473;-79
2023/05/23 06:29:17;;;;;;;9.00;5.10;;;16.00;99.90;;;16.52;100.00;98290.34;5036106;28;20466;-79
2023/05/23 06:31:45;;;;;;;6.80;4.60;;;15.90;99.90;;;16.54;100.00;98290.94;5035728;28;20464;-79
2023/05/23 06:34:16;;;;;;;20.63;4.90;;;16.00;99.90;;;16.49;100.00;98293.41;5033177;28;20508;-79
2023/05/23 06:36:45;;;;;;;5.97;3.87;;;15.90;99.90;;;16.53;100.00;98291.97;5034239;28;20472;-79
2023/05/23 06:39:14;;;;;;;6.17;4.70;;;15.90;99.90;;;16.54;100.00;98288.31;5037516;28;20483;-79
2023/05/23 06:41:43;;;;;;;8.23;4.20;;;16.00;99.90;;;16.56;100.00;98294.19;5036552;28;20492;-79
2023/05/23 06:44:14;;;;;;;14.53;4.10;;;15.90;99.90;;;16.58;100.00;98300.06;5033041;28;20983;-79
2023/05/23 06:46:46;;;;;;;5.33;3.83;;;15.90;99.90;;;16.58;100.00;98308.00;5033332;28;20462;-79
2023/05/23 06:49:15;;;;;;;8.00;3.57;;;15.90;99.90;;;16.63;100.00;98298.59;5035621;28;20461;-79
2023/05/23 06:51:44;;;;;;;5.57;3.77;;;16.00;99.90;;;16.66;100.00;98301.59;5034693;28;20469;-79
2023/05/23 06:54:13;;;;;;;5.07;3.80;;;16.00;99.90;;;16.66;100.00;98317.44;5033132;28;20531;-79
2023/05/23 06:56:42;;;;;;;4.37;3.27;;;16.00;99.90;;;16.63;100.00;98311.78;5035248;28;20940;-79
2023/05/23 06:59:12;;;;;;;3.97;2.90;;;16.10;99.90;;;16.60;100.00;98305.13;5037734;28;20465;-79
2023/05/23 07:01:40;;;;;;;5.17;2.93;;;16.00;99.90;;;16.53;100.00;98313.06;5032396;28;20760;-79
2023/05/23 07:04:10;;;;;;;3.03;2.30;;;15.90;99.90;;;16.53;100.00;98310.44;5036288;28;20457;-79
2023/05/23 07:06:39;;;;;;;5.17;3.20;;;15.90;99.90;;;16.59;100.00;98312.22;5035165;28;20947;-79
2023/05/23 07:09:10;;;;;;;3.40;2.60;;;16.00;99.90;;;16.64;100.00;98308.94;5036370;28;20461;-78
2023/05/23 07:11:40;;;;;;;2.30;1.70;;;16.00;99.90;;;16.58;100.00;98320.38;5030414;28;20550;-79
2023/05/23 07:14:09;;;;;;;3.03;2.13;;;16.00;99.90;;;16.59;100.00;98311.44;5035873;28;20499;-78
2023/05/23 07:16:38;;;;;;;14.77;7.80;;;16.10;99.90;;;16.60;100.00;98316.50;5037317;28;20465;-79
2023/05/23 07:19:08;;;;;;;2.70;2.10;;;16.00;99.90;;;16.60;100.00;98318.31;5033875;28;20476;-79
2023/05/23 07:21:37;;;;;;;2.27;2.07;;;16.10;99.90;;;16.56;100.00;98331.16;5035560;28;20482;-78
2023/05/23 07:24:06;;;;;;;2.80;2.10;;;16.00;99.90;;;16.61;100.00;98333.16;5039148;28;20522;-79
2023/05/23 07:26:35;;;;;;;2.10;1.70;;;16.00;99.90;;;16.62;100.00;98336.59;5033754;28;20464;-78
2023/05/23 07:29:03;;;;;;;2.33;2.13;;;16.00;99.90;;;16.60;100.00;98336.81;5032595;28;20457;-79
2023/05/23 07:31:32;;;;;;;2.60;2.20;;;16.10;99.90;;;16.56;100.00;98330.34;5035720;28;20482;-79
2023/05/23 07:34:02;;;;;;;2.57;2.20;;;16.00;99.90;;;16.58;100.00;98331.75;5034145;28;20596;-80
2023/05/23 07:36:32;;;;;;;2.40;2.20;;;16.00;99.90;;;16.59;100.00;98333.34;5039545;28;20480;-81
2023/05/23 07:39:02;;;;;;;8.53;2.80;;;16.00;99.90;;;16.63;100.00;98332.91;5039260;28;20877;-80
2023/05/23 07:41:31;;;;;;;3.70;2.40;;;16.10;99.90;;;16.62;100.00;98320.75;5038720;28;20561;-79
2023/05/23 07:44:00;;;;;;;3.73;2.50;;;16.10;99.90;;;16.64;100.00;98319.50;5040310;28;20455;-79
2023/05/23 07:46:28;;;;;;;4.30;2.60;;;16.00;99.90;;;16.67;100.00;98318.25;5039441;28;21480;-79
2023/05/23 07:48:57;;;;;;;3.47;2.40;;;16.00;99.90;;;16.67;100.00;98315.59;5040922;28;20496;-79
2023/05/23 07:51:27;;;;;;;5.57;2.53;;;16.00;99.90;;;16.78;100.00;98322.81;5040386;28;20488;-79
2023/05/23 07:53:56;;;;;;;13.23;2.70;;;16.10;99.90;;;16.85;100.00;98305.88;5040016;28;20492;-78
2023/05/23 07:56:26;;;;;;;3.73;2.67;;;16.20;99.90;;;16.92;100.00;98311.06;5039378;28;20826;-79
2023/05/23 07:58:54;;;;;;;9.80;2.50;;;16.10;99.90;;;16.97;100.00;98317.31;5043081;28;20966;-79
2023/05/23 08:01:24;;;;;;;4.10;3.37;;;16.20;99.90;;;17.06;100.00;98323.09;5039483;28;20926;-79
2023/05/23 08:03:52;;;;;;;5.43;3.10;;;16.30;99.90;;;17.10;100.00;98321.66;5044900;28;20468;-78
2023/05/23 08:06:21;;;;;;;3.30;2.70;;;16.40;99.90;;;17.07;100.00;98330.03;5042966;28;20476;-78
2023/05/23 08:08:51;;;;;;;3.50;2.80;;;16.40;99.90;;;17.14;100.00;98325.47;5044169;28;20484;-78
2023/05/23 08:11:20;;;;;;;2.63;2.17;;;16.50;99.90;;;17.22;100.00;98321.69;5043117;28;20518;-78
2023/05/23 08:13:49;;;;;;;2.73;2.30;;;16.60;99.90;;;17.25;100.00;98314.13;5040928;28;20460;-79
2023/05/23 08:16:17;;;;;;;3.23;2.30;;;16.70;99.90;;;17.27;100.00;98325.28;5042987;28;20979;-78
2023/05/23 08:18:46;;;;;;;2.80;2.37;;;16.70;99.90;;;17.29;100.00;98333.78;5041986;28;20482;-79
2023/05/23 08:21:14;;;;;;;2.70;2.50;;;16.70;99.90;;;17.22;100.00;98322.50;5041986;28;20476;-78
2023/05/23 08:23:43;;;;;;;3.00;2.40;;;16.60;99.90;;;17.29;100.00;98325.06;5041558;28;20464;-79
2023/05/23 08:26:13;;;;;;;3.20;2.20;;;16.80;99.90;;;17.34;100.00;98328.66;5042293;28;20840;-79
2023/05/23 08:28:41;;;;;;;3.10;2.50;;;16.80;99.90;;;17.41;100.00;98326.75;5044429;28;20529;-79
2023/05/23 08:31:10;;;;;;;2.33;2.13;;;16.80;99.90;;;17.43;100.00;98329.16;5043265;28;20561;-79
2023/05/23 08:33:39;;;;;;;2.90;2.00;;;16.90;99.90;;;17.51;100.00;98327.00;5034695;28;20515;-78
2023/05/23 08:36:08;;;;;;;4.50;2.60;;;16.90;99.90;;;17.57;100.00;98334.06;5040635;28;20550;-80
2023/05/23 08:38:37;;;;;;;3.27;2.43;;;17.00;99.90;;;17.60;100.00;98336.25;5035988;28;20926;-78
2023/05/23 08:41:16;;;;;;;2.20;2.00;;;17.10;99.90;;;17.61;100.00;98347.66;5036755;28;20828;-78
2023/05/23 08:43:44;;;;;;;2.30;2.07;;;17.00;99.90;;;17.59;100.00;98339.97;5037275;28;20480;-79
2023/05/23 08:46:14;;;;;;;3.00;2.10;;;16.90;99.90;;;17.65;100.00;98343.53;5035213;28;20980;-78
2023/05/23 08:48:50;;;;;;;2.40;2.03;;;16.90;99.90;;;17.67;100.00;98341.47;5035757;28;21243;-78
2023/05/23 08:51:22;;;;;;;3.10;2.77;;;17.00;99.90;;;17.74;100.00;98347.47;5036191;28;20775;-79
2023/05/23 08:53:52;;;;;;;2.67;2.47;;;17.10;99.90;;;17.74;100.00;98349.28;5039891;28;20468;-79
2023/05/23 08:56:24;;;;;;;2.50;2.30;;;17.10;99.90;;;17.72;100.00;98346.09;5043040;28;20505;-79
2023/05/23 08:58:53;;;;;;;5.20;2.43;;;17.10;99.90;;;17.74;100.00;98351.94;5040592;28;20463;-79
2023/05/23 09:01:25;;;;;;;2.73;2.43;;;17.10;99.90;;;17.73;100.00;98347.69;5043386;28;21018;-79
2023/05/23 09:03:54;;;;;;;2.30;2.10;;;17.20;99.90;;;17.73;100.00;98358.28;5040148;28;20472;-79
2023/05/23 09:06:23;;;;;;;3.20;2.57;;;17.20;99.90;;;17.73;100.00;98355.63;5042027;28;20461;-79
2023/05/23 09:08:52;;;;;;;3.00;2.70;;;17.10;99.90;;;17.77;100.00;98356.81;5043560;28;21002;-79
2023/05/23 09:11:24;;;;;;;4.67;3.70;;;17.20;99.90;;;17.70;100.00;98362.16;5043052;28;20464;-79
2023/05/23 09:13:52;;;;;;;4.23;3.17;;;17.10;99.90;;;17.64;100.00;98370.19;5039525;28;20473;-79
2023/05/23 09:16:21;;;;;;;4.67;3.30;;;17.00;99.90;;;17.59;100.00;98374.34;5043327;28;20504;-79
2023/05/23 09:18:49;;;;;;;3.40;2.73;;;17.00;99.90;;;17.60;100.00;98377.78;5040008;28;20473;-79
2023/05/23 09:21:19;;;;;;;2.80;2.50;;;17.00;99.90;;;17.59;100.00;98377.00;5044606;28;20467;-79
2023/05/23 09:23:50;;;;;;;3.63;3.10;;;17.00;99.90;;;17.57;100.00;98373.75;5046905;28;20465;-79
2023/05/23 09:26:20;;;;;;;5.73;3.00;;;16.90;99.90;;;17.66;100.00;98376.09;5042576;28;20475;-79
2023/05/23 09:28:51;;;;;;;4.00;3.30;;;17.00;99.90;;;17.67;100.00;98367.91;5037091;28;20472;-78
2023/05/23 09:31:28;;;;;;;3.93;3.27;;;17.00;99.90;;;17.63;100.00;98379.19;5038070;28;20462;-79
2023/05/23 09:33:58;;;;;;;5.33;3.87;;;16.90;99.90;;;17.66;100.00;98381.38;5038815;28;20457;-79
2023/05/23 09:36:31;;;;;;;5.43;4.10;;;16.90;99.90;;;17.58;100.00;98383.28;5036217;28;20583;-78
2023/05/23 09:39:05;;;;;;;5.40;3.90;;;16.90;99.90;;;17.56;100.00;98381.91;5038981;28;21028;-78
2023/05/23 09:41:34;;;;;;;4.97;3.90;;;16.80;99.90;;;17.55;100.00;98386.34;5033550;28;20498;-78
2023/05/23 09:44:09;;;;;;;12.83;3.70;;;16.90;99.90;;;17.51;100.00;98385.19;5040039;28;20453;-78
2023/05/23 09:46:38;;;;;;;4.97;4.10;;;16.80;99.90;;;17.55;100.00;98386.34;5039650;28;21010;-78
2023/05/23 09:49:18;;;;;;;4.43;3.73;;;16.80;99.90;;;17.64;100.00;98380.78;5032465;28;20550;-78
2023/05/23 09:51:58;;;;;;;6.50;5.43;;;17.00;99.90;;;17.68;100.00;98384.59;5036863;28;21055;-77
2023/05/23 09:54:27;;;;;;;6.10;3.60;;;17.00;99.90;;;17.76;100.00;98376.34;5034250;28;20604;-79
2023/05/23 09:57:00;;;;;;;5.27;3.97;;;17.10;99.90;;;17.83;100.00;98383.16;5037922;28;20508;-78
2023/05/23 09:59:34;;;;;;;5.23;3.60;;;17.20;99.90;;;17.90;100.00;98377.78;5025544;28;20978;-79
2023/05/23 10:02:07;;;;;;;8.03;3.80;;;17.30;99.90;;;17.96;100.00;98368.94;5034913;28;20847;-79
2023/05/23 10:04:38;;;;;;;6.27;4.37;;;17.40;99.90;;;17.92;100.00;98370.41;5039617;28;20465;-78
2023/05/23 10:07:17;;;;;;;4.70;3.60;;;17.40;99.90;;;17.94;100.00;98377.13;5040303;28;20500;-80
2023/05/23 10:09:54;;;;;;;4.57;4.13;;;17.40;99.90;;;17.97;100.00;98381.16;5037212;28;20484;-78
2023/05/23 10:12:50;;;;;;;4.10;3.70;;;17.40;99.90;;;18.01;100.00;98375.16;5041732;28;20468;-80
2023/05/23 10:15:23;;;;;;;5.73;4.47;;;17.50;99.90;;;18.00;100.00;98383.34;5039758;28;20850;-79
2023/05/23 10:18:06;;;;;;;8.13;5.40;;;17.50;99.90;;;18.01;100.00;98383.09;5041163;28;20461;-79